sensor_id;sensor_type;location;lat;lon;timestamp;pressure;altitude;pressure_sealevel;temperature;humidity
47913;BME280;33676;51.006;17.180;2023-01-30T00:01:28;100285.54;;;-0.80;95.08
47913;BME280;33676;51.006;17.180;2023-01-30T00:03:57;100273.45;;;-0.83;94.90
47913;BME280;33676;51.006;17.180;2023-01-30T00:06:26;100268.57;;;-0.86;95.03
47913;BME280;33676;51.006;17.180;2023-01-30T00:08:54;100261.64;;;-0.89;94.97
47913;BME280;33676;51.006;17.180;2023-01-30T00:11:23;100256.27;;;-0.93;94.88
47913;BME280;33676;51.006;17.180;2023-01-30T00:13:51;100249.00;;;-0.96;94.85
47913;BME280;33676;51.006;17.180;2023-01-30T00:16:20;100239.98;;;-0.99;94.87
47913;BME280;33676;51.006;17.180;2023-01-30T00:18:48;100232.64;;;-1.00;95.04
47913;BME280;33676;51.006;17.180;2023-01-30T00:21:18;100225.81;;;-1.01;95.15
47913;BME280;33676;51.006;17.180;2023-01-30T00:23:46;100224.61;;;-1.01;95.30
47913;BME280;33676;51.006;17.180;2023-01-30T00:26:14;100217.60;;;-1.02;95.43
47913;BME280;33676;51.006;17.180;2023-01-30T00:28:43;100213.71;;;-1.04;95.33
47913;BME280;33676;51.006;17.180;2023-01-30T00:31:11;100213.91;;;-1.04;95.49
47913;BME280;33676;51.006;17.180;2023-01-30T00:33:40;100208.35;;;-1.07;95.46
47913;BME280;33676;51.006;17.180;2023-01-30T00:36:09;100204.97;;;-1.08;95.38
47913;BME280;33676;51.006;17.180;2023-01-30T00:38:37;100203.88;;;-1.12;95.29
47913;BME280;33676;51.006;17.180;2023-01-30T00:41:06;100203.63;;;-1.15;95.23
47913;BME280;33676;51.006;17.180;2023-01-30T00:43:35;100199.41;;;-1.17;95.31
47913;BME280;33676;51.006;17.180;2023-01-30T00:46:28;100193.49;;;-1.20;95.25
47913;BME280;33676;51.006;17.180;2023-01-30T00:49:17;100181.79;;;-1.24;95.24
47913;BME280;33676;51.006;17.180;2023-01-30T00:51:45;100173.86;;;-1.28;95.20
47913;BME280;33676;51.006;17.180;2023-01-30T00:54:14;100166.94;;;-1.31;95.17
47913;BME280;33676;51.006;17.180;2023-01-30T00:56:42;100161.41;;;-1.36;95.30
47913;BME280;33676;51.006;17.180;2023-01-30T00:59:11;100153.30;;;-1.40;94.91
47913;BME280;33676;51.006;17.180;2023-01-30T01:01:39;100143.91;;;-1.41;95.20
47913;BME280;33676;51.006;17.180;2023-01-30T01:04:08;100134.56;;;-1.44;95.13
47913;BME280;33676;51.006;17.180;2023-01-30T01:06:38;100136.88;;;-1.47;95.14
47913;BME280;33676;51.006;17.180;2023-01-30T01:09:06;100131.81;;;-1.49;95.19
47913;BME280;33676;51.006;17.180;2023-01-30T01:11:35;100126.53;;;-1.50;95.17
47913;BME280;33676;51.006;17.180;2023-01-30T01:14:04;100122.63;;;-1.51;95.24
47913;BME280;33676;51.006;17.180;2023-01-30T01:16:34;100121.60;;;-1.52;95.30
47913;BME280;33676;51.006;17.180;2023-01-30T01:19:03;100118.21;;;-1.53;95.41
47913;BME280;33676;51.006;17.180;2023-01-30T01:21:32;100110.59;;;-1.55;95.28
47913;BME280;33676;51.006;17.180;2023-01-30T01:24:00;100102.14;;;-1.58;95.24
47913;BME280;33676;51.006;17.180;2023-01-30T01:26:28;100099.15;;;-1.61;95.23
47913;BME280;33676;51.006;17.180;2023-01-30T01:28:57;100091.48;;;-1.63;95.31
47913;BME280;33676;51.006;17.180;2023-01-30T01:31:26;100087.08;;;-1.64;95.25
47913;BME280;33676;51.006;17.180;2023-01-30T01:33:55;100091.39;;;-1.65;95.36
47913;BME280;33676;51.006;17.180;2023-01-30T01:36:24;100084.89;;;-1.66;95.57
47913;BME280;33676;51.006;17.180;2023-01-30T01:39:12;100079.08;;;-1.67;95.63
47913;BME280;33676;51.006;17.180;2023-01-30T01:41:41;100071.88;;;-1.66;95.62
47913;BME280;33676;51.006;17.180;2023-01-30T01:44:12;100067.06;;;-1.66;95.46
47913;BME280;33676;51.006;17.180;2023-01-30T01:46:50;100059.67;;;-1.65;95.71
47913;BME280;33676;51.006;17.180;2023-01-30T01:49:23;100062.37;;;-1.64;95.75
47913;BME280;33676;51.006;17.180;2023-01-30T01:52:14;100071.59;;;-1.62;95.88
47913;BME280;33676;51.006;17.180;2023-01-30T01:54:56;100057.77;;;-1.59;96.06
47913;BME280;33676;51.006;17.180;2023-01-30T02:00:14;100052.27;;;-1.54;96.09
47913;BME280;33676;51.006;17.180;2023-01-30T02:02:50;100045.88;;;-1.52;96.06
47913;BME280;33676;51.006;17.180;2023-01-30T02:05:22;100039.59;;;-1.49;96.18
47913;BME280;33676;51.006;17.180;2023-01-30T02:08:23;100041.52;;;-1.45;96.14
47913;BME280;33676;51.006;17.180;2023-01-30T02:11:04;100036.08;;;-1.41;96.37
47913;BME280;33676;51.006;17.180;2023-01-30T02:13:33;100030.92;;;-1.36;96.33
47913;BME280;33676;51.006;17.180;2023-01-30T02:16:04;100021.02;;;-1.31;96.35
47913;BME280;33676;51.006;17.180;2023-01-30T02:18:35;100023.08;;;-1.26;96.41
47913;BME280;33676;51.006;17.180;2023-01-30T02:38:46;99960.39;;;-0.95;96.29
47913;BME280;33676;51.006;17.180;2023-01-30T02:41:51;99949.14;;;-0.92;96.33
47913;BME280;33676;51.006;17.180;2023-01-30T02:44:33;99949.69;;;-0.88;96.26
47913;BME280;33676;51.006;17.180;2023-01-30T02:47:16;99944.39;;;-0.84;96.21
47913;BME280;33676;51.006;17.180;2023-01-30T02:49:57;99931.78;;;-0.82;96.17
47913;BME280;33676;51.006;17.180;2023-01-30T02:52:28;99926.38;;;-0.80;96.08
47913;BME280;33676;51.006;17.180;2023-01-30T02:54:57;99926.14;;;-0.78;95.90
47913;BME280;33676;51.006;17.180;2023-01-30T02:57:26;99916.38;;;-0.78;96.00
47913;BME280;33676;51.006;17.180;2023-01-30T02:59:58;99913.38;;;-0.76;95.84
47913;BME280;33676;51.006;17.180;2023-01-30T03:05:14;99911.42;;;-0.75;95.74
47913;BME280;33676;51.006;17.180;2023-01-30T03:11:07;99884.20;;;-0.72;95.39
47913;BME280;33676;51.006;17.180;2023-01-30T03:14:07;99874.61;;;-0.72;95.34
47913;BME280;33676;51.006;17.180;2023-01-30T03:16:38;99871.16;;;-0.71;95.49
47913;BME280;33676;51.006;17.180;2023-01-30T03:19:11;99864.96;;;-0.71;95.27
47913;BME280;33676;51.006;17.180;2023-01-30T03:21:42;99868.02;;;-0.70;95.14
47913;BME280;33676;51.006;17.180;2023-01-30T03:24:13;99869.66;;;-0.69;95.09
47913;BME280;33676;51.006;17.180;2023-01-30T03:26:47;99865.16;;;-0.68;95.05
47913;BME280;33676;51.006;17.180;2023-01-30T03:29:16;99864.77;;;-0.66;95.19
47913;BME280;33676;51.006;17.180;2023-01-30T03:31:44;99865.05;;;-0.64;94.99
47913;BME280;33676;51.006;17.180;2023-01-30T03:34:13;99861.36;;;-0.62;95.04
47913;BME280;33676;51.006;17.180;2023-01-30T03:36:41;99850.63;;;-0.59;94.82
47913;BME280;33676;51.006;17.180;2023-01-30T03:39:10;99841.30;;;-0.58;94.88
47913;BME280;33676;51.006;17.180;2023-01-30T03:41:38;99830.21;;;-0.55;94.89
47913;BME280;33676;51.006;17.180;2023-01-30T03:44:06;99830.27;;;-0.53;94.75
47913;BME280;33676;51.006;17.180;2023-01-30T03:46:35;99823.83;;;-0.51;94.70
47913;BME280;33676;51.006;17.180;2023-01-30T03:49:04;99829.91;;;-0.49;94.68
47913;BME280;33676;51.006;17.180;2023-01-30T03:51:32;99823.50;;;-0.47;94.15
47913;BME280;33676;51.006;17.180;2023-01-30T03:54:00;99825.14;;;-0.45;93.72
47913;BME280;33676;51.006;17.180;2023-01-30T03:56:29;99815.16;;;-0.45;93.69
47913;BME280;33676;51.006;17.180;2023-01-30T03:58:58;99802.96;;;-0.45;93.76
47913;BME280;33676;51.006;17.180;2023-01-30T04:01:26;99797.63;;;-0.44;93.78
47913;BME280;33676;51.006;17.180;2023-01-30T04:03:54;99797.33;;;-0.46;93.56
47913;BME280;33676;51.006;17.180;2023-01-30T04:06:23;99800.06;;;-0.45;93.53
47913;BME280;33676;51.006;17.180;2023-01-30T04:08:54;99803.79;;;-0.44;93.55
47913;BME280;33676;51.006;17.180;2023-01-30T04:11:22;99807.31;;;-0.42;93.42
47913;BME280;33676;51.006;17.180;2023-01-30T04:13:51;99809.35;;;-0.42;93.08
47913;BME280;33676;51.006;17.180;2023-01-30T04:16:22;99806.23;;;-0.41;93.13
47913;BME280;33676;51.006;17.180;2023-01-30T04:18:51;99805.29;;;-0.38;93.00
47913;BME280;33676;51.006;17.180;2023-01-30T04:21:20;99789.11;;;-0.38;92.72
47913;BME280;33676;51.006;17.180;2023-01-30T04:23:49;99776.55;;;-0.37;92.78
47913;BME280;33676;51.006;17.180;2023-01-30T04:26:17;99759.17;;;-0.36;92.87
47913;BME280;33676;51.006;17.180;2023-01-30T04:28:45;99747.47;;;-0.35;92.73
47913;BME280;33676;51.006;17.180;2023-01-30T04:31:14;99739.04;;;-0.35;92.75
47913;BME280;33676;51.006;17.180;2023-01-30T04:33:42;99714.25;;;-0.34;92.85
47913;BME280;33676;51.006;17.180;2023-01-30T04:36:11;99714.89;;;-0.32;92.94
47913;BME280;33676;51.006;17.180;2023-01-30T04:38:40;99710.40;;;-0.32;93.06
47913;BME280;33676;51.006;17.180;2023-01-30T04:41:08;99699.21;;;-0.31;92.98
47913;BME280;33676;51.006;17.180;2023-01-30T04:43:36;99689.85;;;-0.29;93.05
47913;BME280;33676;51.006;17.180;2023-01-30T04:46:05;99684.78;;;-0.27;93.19
47913;BME280;33676;51.006;17.180;2023-01-30T04:48:33;99681.45;;;-0.25;92.94
47913;BME280;33676;51.006;17.180;2023-01-30T04:51:02;99671.95;;;-0.24;93.06
47913;BME280;33676;51.006;17.180;2023-01-30T04:53:30;99667.90;;;-0.22;92.95
47913;BME280;33676;51.006;17.180;2023-01-30T04:55:59;99658.39;;;-0.20;92.96
47913;BME280;33676;51.006;17.180;2023-01-30T04:58:27;99650.98;;;-0.20;92.98
47913;BME280;33676;51.006;17.180;2023-01-30T05:01:11;99652.98;;;-0.18;93.15
47913;BME280;33676;51.006;17.180;2023-01-30T05:03:39;99641.41;;;-0.17;92.97
47913;BME280;33676;51.006;17.180;2023-01-30T05:06:08;99623.48;;;-0.16;92.90
47913;BME280;33676;51.006;17.180;2023-01-30T05:08:36;99621.70;;;-0.14;92.87
47913;BME280;33676;51.006;17.180;2023-01-30T05:11:05;99622.84;;;-0.13;92.81
47913;BME280;33676;51.006;17.180;2023-01-30T05:13:33;99615.17;;;-0.10;92.53
47913;BME280;33676;51.006;17.180;2023-01-30T05:16:01;99615.40;;;-0.08;92.67
47913;BME280;33676;51.006;17.180;2023-01-30T05:18:30;99623.20;;;-0.06;92.51
47913;BME280;33676;51.006;17.180;2023-01-30T05:21:14;99622.63;;;-0.05;92.44
47913;BME280;33676;51.006;17.180;2023-01-30T05:23:44;99615.59;;;-0.04;92.19
47913;BME280;33676;51.006;17.180;2023-01-30T05:26:14;99611.61;;;-0.04;92.24
47913;BME280;33676;51.006;17.180;2023-01-30T05:28:43;99610.39;;;-0.04;92.19
47913;BME280;33676;51.006;17.180;2023-01-30T05:31:13;99610.91;;;-0.04;91.83
47913;BME280;33676;51.006;17.180;2023-01-30T05:33:41;99602.14;;;-0.04;91.71
47913;BME280;33676;51.006;17.180;2023-01-30T05:36:15;99606.33;;;-0.05;91.53
47913;BME280;33676;51.006;17.180;2023-01-30T05:38:45;99611.22;;;-0.07;91.29
47913;BME280;33676;51.006;17.180;2023-01-30T05:41:15;99598.83;;;-0.10;91.34
47913;BME280;33676;51.006;17.180;2023-01-30T05:43:48;99596.65;;;-0.11;91.05
47913;BME280;33676;51.006;17.180;2023-01-30T05:46:17;99590.17;;;-0.12;91.35
47913;BME280;33676;51.006;17.180;2023-01-30T05:48:46;99586.10;;;-0.13;91.16
47913;BME280;33676;51.006;17.180;2023-01-30T05:51:18;99587.48;;;-0.13;91.25
47913;BME280;33676;51.006;17.180;2023-01-30T05:53:47;99583.88;;;-0.14;91.62
47913;BME280;33676;51.006;17.180;2023-01-30T05:56:17;99572.39;;;-0.14;91.39
47913;BME280;33676;51.006;17.180;2023-01-30T05:58:50;99567.42;;;-0.14;91.54
47913;BME280;33676;51.006;17.180;2023-01-30T06:01:20;99569.51;;;-0.15;91.61
47913;BME280;33676;51.006;17.180;2023-01-30T06:03:49;99569.55;;;-0.16;91.75
47913;BME280;33676;51.006;17.180;2023-01-30T06:06:18;99565.61;;;-0.16;91.87
47913;BME280;33676;51.006;17.180;2023-01-30T06:08:51;99563.13;;;-0.14;91.93
47913;BME280;33676;51.006;17.180;2023-01-30T06:11:22;99560.42;;;-0.11;91.74
47913;BME280;33676;51.006;17.180;2023-01-30T06:13:50;99558.11;;;-0.09;91.88
47913;BME280;33676;51.006;17.180;2023-01-30T06:16:19;99547.85;;;-0.07;92.04
47913;BME280;33676;51.006;17.180;2023-01-30T06:18:48;99538.09;;;-0.04;91.98
47913;BME280;33676;51.006;17.180;2023-01-30T06:21:16;99532.93;;;-0.00;91.98
47913;BME280;33676;51.006;17.180;2023-01-30T06:23:45;99535.86;;;0.03;91.73
47913;BME280;33676;51.006;17.180;2023-01-30T06:26:13;99537.25;;;0.07;91.82
47913;BME280;33676;51.006;17.180;2023-01-30T06:28:42;99532.83;;;0.09;91.79
47913;BME280;33676;51.006;17.180;2023-01-30T06:31:10;99527.39;;;0.11;91.69
47913;BME280;33676;51.006;17.180;2023-01-30T06:33:39;99533.59;;;0.15;91.62
47913;BME280;33676;51.006;17.180;2023-01-30T06:36:08;99533.46;;;0.17;91.75
47913;BME280;33676;51.006;17.180;2023-01-30T06:38:36;99531.61;;;0.20;91.79
47913;BME280;33676;51.006;17.180;2023-01-30T06:41:05;99536.95;;;0.23;91.87
47913;BME280;33676;51.006;17.180;2023-01-30T06:43:33;99532.73;;;0.26;91.97
47913;BME280;33676;51.006;17.180;2023-01-30T06:46:02;99523.47;;;0.29;91.72
47913;BME280;33676;51.006;17.180;2023-01-30T06:48:30;99511.45;;;0.32;91.86
47913;BME280;33676;51.006;17.180;2023-01-30T06:50:59;99503.11;;;0.34;92.18
47913;BME280;33676;51.006;17.180;2023-01-30T06:53:30;99500.09;;;0.36;92.13
47913;BME280;33676;51.006;17.180;2023-01-30T06:56:00;99497.64;;;0.37;92.15
47913;BME280;33676;51.006;17.180;2023-01-30T06:58:28;99492.05;;;0.39;92.06
47913;BME280;33676;51.006;17.180;2023-01-30T07:00:57;99495.47;;;0.39;92.01
47913;BME280;33676;51.006;17.180;2023-01-30T07:03:25;99485.64;;;0.40;91.82
47913;BME280;33676;51.006;17.180;2023-01-30T07:05:54;99493.35;;;0.40;91.94
47913;BME280;33676;51.006;17.180;2023-01-30T07:08:24;99490.02;;;0.42;91.89
47913;BME280;33676;51.006;17.180;2023-01-30T07:10:52;99487.54;;;0.43;92.04
47913;BME280;33676;51.006;17.180;2023-01-30T07:13:21;99483.95;;;0.43;91.85
47913;BME280;33676;51.006;17.180;2023-01-30T07:15:50;99479.64;;;0.43;91.72
47913;BME280;33676;51.006;17.180;2023-01-30T07:18:18;99478.75;;;0.44;91.78
47913;BME280;33676;51.006;17.180;2023-01-30T07:20:48;99478.21;;;0.44;91.89
47913;BME280;33676;51.006;17.180;2023-01-30T07:23:16;99472.50;;;0.45;91.90
47913;BME280;33676;51.006;17.180;2023-01-30T07:25:45;99476.73;;;0.46;91.97
47913;BME280;33676;51.006;17.180;2023-01-30T07:28:13;99477.35;;;0.48;92.08
47913;BME280;33676;51.006;17.180;2023-01-30T07:30:42;99482.92;;;0.50;92.01
47913;BME280;33676;51.006;17.180;2023-01-30T07:33:10;99478.48;;;0.52;92.13
47913;BME280;33676;51.006;17.180;2023-01-30T07:35:39;99481.62;;;0.54;91.99
47913;BME280;33676;51.006;17.180;2023-01-30T07:38:07;99478.15;;;0.58;91.88
47913;BME280;33676;51.006;17.180;2023-01-30T07:40:35;99475.88;;;0.62;91.93
47913;BME280;33676;51.006;17.180;2023-01-30T07:43:08;99475.31;;;0.67;92.13
47913;BME280;33676;51.006;17.180;2023-01-30T07:45:40;99479.63;;;0.74;91.98
47913;BME280;33676;51.006;17.180;2023-01-30T07:48:11;99473.19;;;0.79;92.02
47913;BME280;33676;51.006;17.180;2023-01-30T07:50:41;99467.77;;;0.84;91.97
47913;BME280;33676;51.006;17.180;2023-01-30T07:53:13;99468.95;;;0.87;91.61
47913;BME280;33676;51.006;17.180;2023-01-30T07:55:41;99465.70;;;0.90;91.98
47913;BME280;33676;51.006;17.180;2023-01-30T07:58:14;99464.80;;;0.91;91.89
47913;BME280;33676;51.006;17.180;2023-01-30T08:00:43;99459.55;;;0.93;91.95
47913;BME280;33676;51.006;17.180;2023-01-30T08:03:14;99459.34;;;0.94;92.08
47913;BME280;33676;51.006;17.180;2023-01-30T08:05:46;99455.54;;;0.94;92.20
47913;BME280;33676;51.006;17.180;2023-01-30T08:08:15;99456.57;;;0.94;92.15
47913;BME280;33676;51.006;17.180;2023-01-30T08:10:43;99454.09;;;0.92;92.30
47913;BME280;33676;51.006;17.180;2023-01-30T08:13:12;99450.86;;;0.91;92.51
47913;BME280;33676;51.006;17.180;2023-01-30T08:15:40;99451.33;;;0.92;92.65
47913;BME280;33676;51.006;17.180;2023-01-30T08:18:09;99445.08;;;0.93;92.80
47913;BME280;33676;51.006;17.180;2023-01-30T08:20:37;99437.10;;;0.95;93.11
47913;BME280;33676;51.006;17.180;2023-01-30T08:23:06;99431.11;;;0.97;93.24
47913;BME280;33676;51.006;17.180;2023-01-30T08:25:35;99418.71;;;1.01;93.20
47913;BME280;33676;51.006;17.180;2023-01-30T08:28:03;99409.70;;;1.05;93.40
47913;BME280;33676;51.006;17.180;2023-01-30T08:30:32;99411.39;;;1.09;93.57
47913;BME280;33676;51.006;17.180;2023-01-30T08:33:01;99417.27;;;1.14;93.57
47913;BME280;33676;51.006;17.180;2023-01-30T08:35:29;99401.52;;;1.19;93.69
47913;BME280;33676;51.006;17.180;2023-01-30T08:37:58;99388.44;;;1.26;93.88
47913;BME280;33676;51.006;17.180;2023-01-30T08:40:26;99385.23;;;1.34;93.84
47913;BME280;33676;51.006;17.180;2023-01-30T08:42:55;99384.08;;;1.40;93.99
47913;BME280;33676;51.006;17.180;2023-01-30T08:45:23;99384.75;;;1.43;93.75
47913;BME280;33676;51.006;17.180;2023-01-30T08:47:52;99374.80;;;1.48;93.86
47913;BME280;33676;51.006;17.180;2023-01-30T08:50:21;99371.05;;;1.57;93.98
47913;BME280;33676;51.006;17.180;2023-01-30T08:52:50;99364.22;;;1.68;94.00
47913;BME280;33676;51.006;17.180;2023-01-30T08:55:19;99361.98;;;1.77;93.99
47913;BME280;33676;51.006;17.180;2023-01-30T08:57:50;99358.82;;;1.84;94.23
47913;BME280;33676;51.006;17.180;2023-01-30T09:00:19;99359.67;;;1.90;94.01
47913;BME280;33676;51.006;17.180;2023-01-30T09:02:52;99356.55;;;1.94;93.97
47913;BME280;33676;51.006;17.180;2023-01-30T09:05:20;99358.18;;;1.98;94.07
47913;BME280;33676;51.006;17.180;2023-01-30T09:07:49;99363.31;;;2.02;93.78
47913;BME280;33676;51.006;17.180;2023-01-30T09:10:18;99369.88;;;2.05;94.18
47913;BME280;33676;51.006;17.180;2023-01-30T09:12:51;99363.04;;;2.07;93.84
47913;BME280;33676;51.006;17.180;2023-01-30T09:15:20;99359.36;;;2.10;93.76
47913;BME280;33676;51.006;17.180;2023-01-30T09:17:51;99349.64;;;2.15;94.01
47913;BME280;33676;51.006;17.180;2023-01-30T09:20:20;99350.36;;;2.20;94.07
47913;BME280;33676;51.006;17.180;2023-01-30T09:22:51;99347.70;;;2.24;93.98
47913;BME280;33676;51.006;17.180;2023-01-30T09:25:20;99346.83;;;2.27;93.94
47913;BME280;33676;51.006;17.180;2023-01-30T09:27:50;99347.99;;;2.31;93.82
47913;BME280;33676;51.006;17.180;2023-01-30T09:30:21;99351.73;;;2.35;93.85
47913;BME280;33676;51.006;17.180;2023-01-30T09:32:50;99343.70;;;2.39;93.86
47913;BME280;33676;51.006;17.180;2023-01-30T09:35:19;99347.70;;;2.42;93.93
47913;BME280;33676;51.006;17.180;2023-01-30T09:37:51;99351.39;;;2.44;93.96
47913;BME280;33676;51.006;17.180;2023-01-30T09:40:25;99348.63;;;2.47;93.91
47913;BME280;33676;51.006;17.180;2023-01-30T09:43:11;99346.88;;;2.53;93.88
47913;BME280;33676;51.006;17.180;2023-01-30T09:49:17;99335.96;;;2.67;93.70
47913;BME280;33676;51.006;17.180;2023-01-30T09:55:23;99324.04;;;2.68;93.33
47913;BME280;33676;51.006;17.180;2023-01-30T09:57:52;99322.89;;;2.63;92.89
47913;BME280;33676;51.006;17.180;2023-01-30T10:00:40;99317.17;;;2.59;93.19
47913;BME280;33676;51.006;17.180;2023-01-30T10:03:18;99313.04;;;2.53;93.20
47913;BME280;33676;51.006;17.180;2023-01-30T10:06:01;99311.58;;;2.46;93.55
47913;BME280;33676;51.006;17.180;2023-01-30T10:09:04;99309.20;;;2.40;94.04
47913;BME280;33676;51.006;17.180;2023-01-30T10:15:22;99304.17;;;2.28;94.91
47913;BME280;33676;51.006;17.180;2023-01-30T10:18:23;99304.95;;;2.21;95.15
47913;BME280;33676;51.006;17.180;2023-01-30T10:21:13;99303.72;;;2.13;95.74
47913;BME280;33676;51.006;17.180;2023-01-30T10:24:32;99297.08;;;2.03;96.31
47913;BME280;33676;51.006;17.180;2023-01-30T10:27:09;99296.45;;;1.90;96.89
47913;BME280;33676;51.006;17.180;2023-01-30T10:29:43;99298.44;;;1.80;97.23
47913;BME280;33676;51.006;17.180;2023-01-30T10:32:34;99286.42;;;1.70;98.16
47913;BME280;33676;51.006;17.180;2023-01-30T10:35:18;99281.59;;;1.61;98.57
47913;BME280;33676;51.006;17.180;2023-01-30T10:37:58;99283.70;;;1.54;99.51
47913;BME280;33676;51.006;17.180;2023-01-30T10:45:12;99279.30;;;1.50;100.00
47913;BME280;33676;51.006;17.180;2023-01-30T10:47:50;99271.86;;;1.48;100.00
47913;BME280;33676;51.006;17.180;2023-01-30T10:51:11;99263.38;;;1.46;100.00
47913;BME280;33676;51.006;17.180;2023-01-30T10:54:16;99265.17;;;1.41;100.00
47913;BME280;33676;51.006;17.180;2023-01-30T10:57:05;99258.02;;;1.37;100.00
47913;BME280;33676;51.006;17.180;2023-01-30T11:00:16;99254.52;;;1.35;100.00
47913;BME280;33676;51.006;17.180;2023-01-30T11:03:23;99254.12;;;1.36;100.00
47913;BME280;33676;51.006;17.180;2023-01-30T11:05:59;99250.04;;;1.38;100.00
47913;BME280;33676;51.006;17.180;2023-01-30T11:08:34;99242.66;;;1.40;100.00
47913;BME280;33676;51.006;17.180;2023-01-30T11:11:51;99237.31;;;1.44;100.00
47913;BME280;33676;51.006;17.180;2023-01-30T11:14:24;99228.13;;;1.51;100.00
47913;BME280;33676;51.006;17.180;2023-01-30T11:16:56;99225.54;;;1.56;100.00
47913;BME280;33676;51.006;17.180;2023-01-30T11:19:32;99227.33;;;1.61;100.00
47913;BME280;33676;51.006;17.180;2023-01-30T11:22:03;99230.83;;;1.66;100.00
47913;BME280;33676;51.006;17.180;2023-01-30T11:24:43;99225.08;;;1.73;100.00
47913;BME280;33676;51.006;17.180;2023-01-30T11:27:22;99217.40;;;1.81;100.00
47913;BME280;33676;51.006;17.180;2023-01-30T11:30:20;99221.31;;;1.87;100.00
47913;BME280;33676;51.006;17.180;2023-01-30T11:33:31;99219.54;;;1.91;100.00
47913;BME280;33676;51.006;17.180;2023-01-30T11:36:41;99216.14;;;1.93;100.00
47913;BME280;33676;51.006;17.180;2023-01-30T11:42:01;99198.36;;;2.11;100.00
47913;BME280;33676;51.006;17.180;2023-01-30T11:44:39;99197.73;;;2.18;100.00
47913;BME280;33676;51.006;17.180;2023-01-30T11:47:27;99198.50;;;2.25;100.00
47913;BME280;33676;51.006;17.180;2023-01-30T11:50:18;99190.86;;;2.34;100.00
47913;BME280;33676;51.006;17.180;2023-01-30T11:53:16;99196.95;;;2.45;100.00
47913;BME280;33676;51.006;17.180;2023-01-30T11:56:03;99182.73;;;2.54;100.00
47913;BME280;33676;51.006;17.180;2023-01-30T11:58:42;99168.52;;;2.63;100.00
47913;BME280;33676;51.006;17.180;2023-01-30T12:01:35;99166.80;;;2.69;100.00
47913;BME280;33676;51.006;17.180;2023-01-30T12:04:10;99162.59;;;2.70;100.00
47913;BME280;33676;51.006;17.180;2023-01-30T12:06:42;99155.81;;;2.70;100.00
47913;BME280;33676;51.006;17.180;2023-01-30T12:09:37;99154.90;;;2.71;100.00
47913;BME280;33676;51.006;17.180;2023-01-30T12:12:48;99148.59;;;2.73;100.00
47913;BME280;33676;51.006;17.180;2023-01-30T12:15:24;99139.99;;;2.75;100.00
47913;BME280;33676;51.006;17.180;2023-01-30T12:18:25;99139.19;;;2.77;100.00
47913;BME280;33676;51.006;17.180;2023-01-30T12:22:15;99145.76;;;2.82;100.00
47913;BME280;33676;51.006;17.180;2023-01-30T12:25:09;99148.76;;;2.86;100.00
47913;BME280;33676;51.006;17.180;2023-01-30T12:28:30;99144.23;;;2.89;100.00
47913;BME280;33676;51.006;17.180;2023-01-30T12:34:25;99140.02;;;2.93;100.00
47913;BME280;33676;51.006;17.180;2023-01-30T12:37:25;99132.96;;;2.95;100.00
47913;BME280;33676;51.006;17.180;2023-01-30T12:40:36;99132.16;;;3.00;100.00
47913;BME280;33676;51.006;17.180;2023-01-30T12:43:47;99128.77;;;3.04;100.00
47913;BME280;33676;51.006;17.180;2023-01-30T12:50:15;99131.75;;;3.11;100.00
47913;BME280;33676;51.006;17.180;2023-01-30T13:01:40;99140.55;;;3.32;100.00
47913;BME280;33676;51.006;17.180;2023-01-30T13:04:53;99130.07;;;3.39;100.00
47913;BME280;33676;51.006;17.180;2023-01-30T13:14:24;99144.16;;;3.51;100.00
47913;BME280;33676;51.006;17.180;2023-01-30T13:24:13;99146.91;;;3.61;100.00
47913;BME280;33676;51.006;17.180;2023-01-30T13:26:40;99152.48;;;3.65;100.00
47913;BME280;33676;51.006;17.180;2023-01-30T13:29:28;99146.84;;;3.69;100.00
47913;BME280;33676;51.006;17.180;2023-01-30T13:32:40;99134.41;;;3.74;100.00
47913;BME280;33676;51.006;17.180;2023-01-30T13:35:34;99133.30;;;3.78;100.00
47913;BME280;33676;51.006;17.180;2023-01-30T13:41:44;99148.41;;;3.82;100.00
47913;BME280;33676;51.006;17.180;2023-01-30T13:44:25;99140.88;;;3.83;100.00
47913;BME280;33676;51.006;17.180;2023-01-30T13:50:25;99146.08;;;3.93;100.00
47913;BME280;33676;51.006;17.180;2023-01-30T14:03:31;99137.73;;;4.50;100.00
47913;BME280;33676;51.006;17.180;2023-01-30T14:06:36;99139.20;;;4.61;100.00
47913;BME280;33676;51.006;17.180;2023-01-30T14:09:27;99142.66;;;4.75;100.00
47913;BME280;33676;51.006;17.180;2023-01-30T14:12:01;99145.32;;;4.82;100.00
47913;BME280;33676;51.006;17.180;2023-01-30T14:14:36;99146.73;;;4.88;99.78
47913;BME280;33676;51.006;17.180;2023-01-30T14:17:17;99136.14;;;4.89;99.64
47913;BME280;33676;51.006;17.180;2023-01-30T14:27:24;99138.75;;;5.49;98.30
47913;BME280;33676;51.006;17.180;2023-01-30T14:31:01;99139.33;;;5.91;98.54
47913;BME280;33676;51.006;17.180;2023-01-30T14:33:59;99143.92;;;6.35;97.26
47913;BME280;33676;51.006;17.180;2023-01-30T14:36:36;99139.73;;;6.61;96.71
47913;BME280;33676;51.006;17.180;2023-01-30T14:39:56;99140.88;;;6.71;94.82
47913;BME280;33676;51.006;17.180;2023-01-30T14:42:30;99144.27;;;6.61;93.20
47913;BME280;33676;51.006;17.180;2023-01-30T14:45:15;99158.20;;;6.38;91.75
47913;BME280;33676;51.006;17.180;2023-01-30T14:47:45;99153.24;;;6.14;91.97
47913;BME280;33676;51.006;17.180;2023-01-30T14:50:41;99153.98;;;5.97;92.11
47913;BME280;33676;51.006;17.180;2023-01-30T14:53:21;99167.55;;;5.69;91.86
47913;BME280;33676;51.006;17.180;2023-01-30T14:56:02;99162.50;;;5.44;92.31
47913;BME280;33676;51.006;17.180;2023-01-30T14:58:32;99161.33;;;5.25;92.80
47913;BME280;33676;51.006;17.180;2023-01-30T15:01:01;99161.85;;;5.09;92.76
47913;BME280;33676;51.006;17.180;2023-01-30T15:04:10;99158.15;;;4.93;93.38
47913;BME280;33676;51.006;17.180;2023-01-30T15:11:11;99161.55;;;4.63;94.05
47913;BME280;33676;51.006;17.180;2023-01-30T15:18:32;99158.87;;;4.42;94.52
47913;BME280;33676;51.006;17.180;2023-01-30T15:28:28;99168.54;;;4.23;94.94
47913;BME280;33676;51.006;17.180;2023-01-30T15:31:23;99166.70;;;4.19;94.97
47913;BME280;33676;51.006;17.180;2023-01-30T15:33:56;99173.52;;;4.16;95.00